sensor_id;sensor_type;location;lat;lon;timestamp;P1;durP1;ratioP1;P2;durP2;ratioP2
49296;SDS011;35163;48.878;18.040;2024-02-15T00:02:22;22.10;;;11.20;;
49296;SDS011;35163;48.878;18.040;2024-02-15T00:04:49;20.77;;;12.07;;
49296;SDS011;35163;48.878;18.040;2024-02-15T00:07:16;22.95;;;11.13;;
49296;SDS011;35163;48.878;18.040;2024-02-15T00:09:43;22.77;;;12.77;;
49296;SDS011;35163;48.878;18.040;2024-02-15T00:12:09;23.10;;;12.63;;
49296;SDS011;35163;48.878;18.040;2024-02-15T00:14:36;23.25;;;13.80;;
49296;SDS011;35163;48.878;18.040;2024-02-15T00:17:04;29.38;;;15.05;;
49296;SDS011;35163;48.878;18.040;2024-02-15T00:19:31;25.08;;;14.20;;
49296;SDS011;35163;48.878;18.040;2024-02-15T00:21:58;27.10;;;15.45;;
49296;SDS011;35163;48.878;18.040;2024-02-15T00:24:24;22.48;;;13.77;;
49296;SDS011;35163;48.878;18.040;2024-02-15T00:26:51;32.50;;;16.65;;
49296;SDS011;35163;48.878;18.040;2024-02-15T00:29:18;27.83;;;15.90;;
49296;SDS011;35163;48.878;18.040;2024-02-15T00:31:44;32.17;;;16.45;;
49296;SDS011;35163;48.878;18.040;2024-02-15T00:34:11;26.70;;;15.80;;
49296;SDS011;35163;48.878;18.040;2024-02-15T00:36:41;23.58;;;13.88;;
49296;SDS011;35163;48.878;18.040;2024-02-15T00:39:10;25.00;;;15.02;;
49296;SDS011;35163;48.878;18.040;2024-02-15T00:41:38;25.73;;;14.57;;
49296;SDS011;35163;48.878;18.040;2024-02-15T00:44:09;25.38;;;13.98;;
49296;SDS011;35163;48.878;18.040;2024-02-15T00:46:39;27.80;;;13.77;;
49296;SDS011;35163;48.878;18.040;2024-02-15T00:49:07;27.63;;;15.10;;
49296;SDS011;35163;48.878;18.040;2024-02-15T00:51:35;22.48;;;13.90;;
49296;SDS011;35163;48.878;18.040;2024-02-15T00:54:02;27.25;;;14.15;;
49296;SDS011;35163;48.878;18.040;2024-02-15T00:56:29;24.70;;;14.88;;
49296;SDS011;35163;48.878;18.040;2024-02-15T00:59:01;26.20;;;13.95;;
49296;SDS011;35163;48.878;18.040;2024-02-15T01:01:28;24.95;;;13.68;;
49296;SDS011;35163;48.878;18.040;2024-02-15T01:03:54;24.83;;;14.27;;
49296;SDS011;35163;48.878;18.040;2024-02-15T01:06:21;26.85;;;14.60;;
49296;SDS011;35163;48.878;18.040;2024-02-15T01:08:48;24.10;;;14.27;;
49296;SDS011;35163;48.878;18.040;2024-02-15T01:11:15;28.42;;;14.35;;
49296;SDS011;35163;48.878;18.040;2024-02-15T01:13:42;27.50;;;14.10;;
49296;SDS011;35163;48.878;18.040;2024-02-15T01:16:11;26.02;;;14.93;;
49296;SDS011;35163;48.878;18.040;2024-02-15T01:18:37;25.42;;;14.55;;
49296;SDS011;35163;48.878;18.040;2024-02-15T01:21:04;30.75;;;15.43;;
49296;SDS011;35163;48.878;18.040;2024-02-15T01:23:31;23.92;;;13.63;;
49296;SDS011;35163;48.878;18.040;2024-02-15T01:25:58;27.30;;;13.85;;
49296;SDS011;35163;48.878;18.040;2024-02-15T01:28:27;28.25;;;14.30;;
49296;SDS011;35163;48.878;18.040;2024-02-15T01:30:54;24.95;;;13.85;;
49296;SDS011;35163;48.878;18.040;2024-02-15T01:33:21;27.00;;;13.63;;
49296;SDS011;35163;48.878;18.040;2024-02-15T01:35:47;27.20;;;14.90;;
49296;SDS011;35163;48.878;18.040;2024-02-15T01:38:15;25.67;;;14.93;;
49296;SDS011;35163;48.878;18.040;2024-02-15T01:40:41;29.80;;;14.23;;
49296;SDS011;35163;48.878;18.040;2024-02-15T01:43:09;28.23;;;14.60;;
49296;SDS011;35163;48.878;18.040;2024-02-15T01:45:35;24.70;;;14.48;;
49296;SDS011;35163;48.878;18.040;2024-02-15T01:48:02;26.92;;;15.13;;
49296;SDS011;35163;48.878;18.040;2024-02-15T01:50:30;26.75;;;14.57;;
49296;SDS011;35163;48.878;18.040;2024-02-15T01:52:59;27.90;;;14.18;;
49296;SDS011;35163;48.878;18.040;2024-02-15T01:55:29;21.92;;;13.40;;
49296;SDS011;35163;48.878;18.040;2024-02-15T01:57:56;24.27;;;14.02;;
49296;SDS011;35163;48.878;18.040;2024-02-15T02:00:23;29.48;;;13.63;;
49296;SDS011;35163;48.878;18.040;2024-02-15T02:02:50;24.63;;;13.60;;
49296;SDS011;35163;48.878;18.040;2024-02-15T02:05:20;23.02;;;13.07;;
49296;SDS011;35163;48.878;18.040;2024-02-15T02:07:47;23.83;;;14.00;;
49296;SDS011;35163;48.878;18.040;2024-02-15T02:10:15;26.60;;;13.60;;
49296;SDS011;35163;48.878;18.040;2024-02-15T02:12:41;27.73;;;14.05;;
49296;SDS011;35163;48.878;18.040;2024-02-15T02:15:08;26.55;;;14.30;;
49296;SDS011;35163;48.878;18.040;2024-02-15T02:17:37;26.77;;;14.10;;
49296;SDS011;35163;48.878;18.040;2024-02-15T02:20:06;26.95;;;13.30;;
49296;SDS011;35163;48.878;18.040;2024-02-15T02:22:35;24.83;;;13.65;;
49296;SDS011;35163;48.878;18.040;2024-02-15T02:25:06;24.25;;;13.43;;
49296;SDS011;35163;48.878;18.040;2024-02-15T02:27:37;23.23;;;14.55;;
49296;SDS011;35163;48.878;18.040;2024-02-15T02:30:12;26.77;;;13.93;;
49296;SDS011;35163;48.878;18.040;2024-02-15T02:32:48;30.75;;;15.27;;
49296;SDS011;35163;48.878;18.040;2024-02-15T02:35:15;28.23;;;14.75;;
49296;SDS011;35163;48.878;18.040;2024-02-15T02:37:46;30.40;;;15.32;;
49296;SDS011;35163;48.878;18.040;2024-02-15T02:40:13;27.83;;;14.88;;
49296;SDS011;35163;48.878;18.040;2024-02-15T02:42:47;26.90;;;14.00;;
49296;SDS011;35163;48.878;18.040;2024-02-15T02:45:19;27.58;;;13.77;;
49296;SDS011;35163;48.878;18.040;2024-02-15T02:47:49;24.75;;;13.98;;
49296;SDS011;35163;48.878;18.040;2024-02-15T02:50:20;25.42;;;14.82;;
49296;SDS011;35163;48.878;18.040;2024-02-15T02:52:49;25.13;;;14.15;;
49296;SDS011;35163;48.878;18.040;2024-02-15T02:55:16;28.65;;;14.32;;
49296;SDS011;35163;48.878;18.040;2024-02-15T02:57:43;25.10;;;14.82;;
49296;SDS011;35163;48.878;18.040;2024-02-15T03:00:11;26.63;;;15.23;;
49296;SDS011;35163;48.878;18.040;2024-02-15T03:02:45;29.60;;;15.40;;
49296;SDS011;35163;48.878;18.040;2024-02-15T03:05:12;28.80;;;15.10;;
49296;SDS011;35163;48.878;18.040;2024-02-15T03:07:42;28.33;;;15.30;;
49296;SDS011;35163;48.878;18.040;2024-02-15T03:10:09;26.33;;;14.63;;
49296;SDS011;35163;48.878;18.040;2024-02-15T03:12:40;26.55;;;15.43;;
49296;SDS011;35163;48.878;18.040;2024-02-15T03:15:12;29.08;;;15.23;;
49296;SDS011;35163;48.878;18.040;2024-02-15T03:17:46;27.27;;;15.88;;
49296;SDS011;35163;48.878;18.040;2024-02-15T03:20:14;30.70;;;16.40;;
49296;SDS011;35163;48.878;18.040;2024-02-15T03:22:58;26.10;;;15.32;;
49296;SDS011;35163;48.878;18.040;2024-02-15T03:25:26;29.73;;;15.10;;
49296;SDS011;35163;48.878;18.040;2024-02-15T03:27:55;26.52;;;14.25;;
49296;SDS011;35163;48.878;18.040;2024-02-15T03:30:27;27.77;;;14.77;;
49296;SDS011;35163;48.878;18.040;2024-02-15T03:32:55;24.52;;;14.05;;
49296;SDS011;35163;48.878;18.040;2024-02-15T03:35:27;25.63;;;12.43;;
49296;SDS011;35163;48.878;18.040;2024-02-15T03:37:57;25.35;;;13.80;;
49296;SDS011;35163;48.878;18.040;2024-02-15T03:40:25;27.27;;;13.82;;
49296;SDS011;35163;48.878;18.040;2024-02-15T03:42:55;23.27;;;13.00;;
49296;SDS011;35163;48.878;18.040;2024-02-15T03:45:22;20.80;;;12.30;;
49296;SDS011;35163;48.878;18.040;2024-02-15T03:47:51;26.27;;;11.68;;
49296;SDS011;35163;48.878;18.040;2024-02-15T03:50:19;24.20;;;12.00;;
49296;SDS011;35163;48.878;18.040;2024-02-15T03:52:46;22.45;;;11.43;;
49296;SDS011;35163;48.878;18.040;2024-02-15T03:55:14;23.95;;;12.50;;
49296;SDS011;35163;48.878;18.040;2024-02-15T03:57:40;27.83;;;14.05;;
49296;SDS011;35163;48.878;18.040;2024-02-15T04:00:07;24.23;;;12.23;;
49296;SDS011;35163;48.878;18.040;2024-02-15T04:02:37;25.85;;;11.20;;
49296;SDS011;35163;48.878;18.040;2024-02-15T04:05:07;26.83;;;12.75;;
49296;SDS011;35163;48.878;18.040;2024-02-15T04:07:36;25.45;;;12.80;;
49296;SDS011;35163;48.878;18.040;2024-02-15T04:10:04;23.73;;;13.27;;
49296;SDS011;35163;48.878;18.040;2024-02-15T04:12:31;22.30;;;12.52;;
49296;SDS011;35163;48.878;18.040;2024-02-15T04:14:57;26.52;;;14.23;;
49296;SDS011;35163;48.878;18.040;2024-02-15T04:17:32;26.77;;;13.32;;
49296;SDS011;35163;48.878;18.040;2024-02-15T04:20:01;34.42;;;15.27;;
49296;SDS011;35163;48.878;18.040;2024-02-15T04:22:30;30.77;;;15.35;;
49296;SDS011;35163;48.878;18.040;2024-02-15T04:25:06;32.33;;;16.50;;
49296;SDS011;35163;48.878;18.040;2024-02-15T04:27:36;31.17;;;16.75;;
49296;SDS011;35163;48.878;18.040;2024-02-15T04:30:02;32.15;;;16.58;;
49296;SDS011;35163;48.878;18.040;2024-02-15T04:32:31;31.63;;;17.42;;
49296;SDS011;35163;48.878;18.040;2024-02-15T04:35:01;29.20;;;16.35;;
49296;SDS011;35163;48.878;18.040;2024-02-15T04:37:29;30.33;;;16.80;;
49296;SDS011;35163;48.878;18.040;2024-02-15T04:39:56;39.83;;;18.20;;
49296;SDS011;35163;48.878;18.040;2024-02-15T04:42:23;31.17;;;17.35;;
49296;SDS011;35163;48.878;18.040;2024-02-15T04:44:51;35.60;;;18.20;;
49296;SDS011;35163;48.878;18.040;2024-02-15T04:47:20;33.13;;;19.50;;
49296;SDS011;35163;48.878;18.040;2024-02-15T04:49:46;37.25;;;18.25;;
49296;SDS011;35163;48.878;18.040;2024-02-15T04:52:13;35.75;;;17.77;;
49296;SDS011;35163;48.878;18.040;2024-02-15T04:54:41;31.33;;;17.67;;
49296;SDS011;35163;48.878;18.040;2024-02-15T04:57:07;31.13;;;17.48;;
49296;SDS011;35163;48.878;18.040;2024-02-15T04:59:35;37.38;;;18.40;;
49296;SDS011;35163;48.878;18.040;2024-02-15T05:02:01;32.35;;;18.95;;
49296;SDS011;35163;48.878;18.040;2024-02-15T05:04:28;33.53;;;19.40;;
49296;SDS011;35163;48.878;18.040;2024-02-15T05:06:55;36.33;;;18.73;;
49296;SDS011;35163;48.878;18.040;2024-02-15T05:09:22;34.78;;;18.88;;
49296;SDS011;35163;48.878;18.040;2024-02-15T05:11:49;33.80;;;18.50;;
49296;SDS011;35163;48.878;18.040;2024-02-15T05:14:16;34.45;;;18.88;;
49296;SDS011;35163;48.878;18.040;2024-02-15T05:16:46;40.80;;;19.58;;
49296;SDS011;35163;48.878;18.040;2024-02-15T05:19:17;34.25;;;19.55;;
49296;SDS011;35163;48.878;18.040;2024-02-15T05:21:44;33.20;;;19.20;;
49296;SDS011;35163;48.878;18.040;2024-02-15T05:24:15;37.75;;;19.33;;
49296;SDS011;35163;48.878;18.040;2024-02-15T05:26:43;36.67;;;19.15;;
49296;SDS011;35163;48.878;18.040;2024-02-15T05:29:15;34.05;;;19.30;;
49296;SDS011;35163;48.878;18.040;2024-02-15T05:31:41;33.95;;;18.52;;
49296;SDS011;35163;48.878;18.040;2024-02-15T05:34:10;40.28;;;19.75;;
49296;SDS011;35163;48.878;18.040;2024-02-15T05:36:38;32.17;;;17.92;;
49296;SDS011;35163;48.878;18.040;2024-02-15T05:39:05;37.10;;;18.55;;
49296;SDS011;35163;48.878;18.040;2024-02-15T05:41:32;35.75;;;18.73;;
49296;SDS011;35163;48.878;18.040;2024-02-15T05:43:59;34.72;;;18.73;;
49296;SDS011;35163;48.878;18.040;2024-02-15T05:46:26;29.85;;;17.35;;
49296;SDS011;35163;48.878;18.040;2024-02-15T05:48:54;28.08;;;16.08;;
49296;SDS011;35163;48.878;18.040;2024-02-15T05:51:21;32.47;;;17.05;;
49296;SDS011;35163;48.878;18.040;2024-02-15T05:53:49;32.05;;;17.90;;
49296;SDS011;35163;48.878;18.040;2024-02-15T05:56:16;32.03;;;17.80;;
49296;SDS011;35163;48.878;18.040;2024-02-15T05:58:43;31.40;;;18.25;;
49296;SDS011;35163;48.878;18.040;2024-02-15T06:01:09;33.40;;;18.40;;
49296;SDS011;35163;48.878;18.040;2024-02-15T06:03:39;34.90;;;17.95;;
49296;SDS011;35163;48.878;18.040;2024-02-15T06:06:08;39.72;;;18.17;;
49296;SDS011;35163;48.878;18.040;2024-02-15T06:08:35;32.50;;;18.13;;
49296;SDS011;35163;48.878;18.040;2024-02-15T06:11:03;30.45;;;17.25;;
49296;SDS011;35163;48.878;18.040;2024-02-15T06:13:31;33.20;;;17.65;;
49296;SDS011;35163;48.878;18.040;2024-02-15T06:15:58;35.20;;;19.13;;
49296;SDS011;35163;48.878;18.040;2024-02-15T06:18:25;32.97;;;18.52;;
49296;SDS011;35163;48.878;18.040;2024-02-15T06:20:55;38.30;;;18.85;;
49296;SDS011;35163;48.878;18.040;2024-02-15T06:23:28;36.80;;;18.83;;
49296;SDS011;35163;48.878;18.040;2024-02-15T06:25:56;35.55;;;17.23;;
49296;SDS011;35163;48.878;18.040;2024-02-15T06:28:24;39.78;;;19.85;;
49296;SDS011;35163;48.878;18.040;2024-02-15T06:33:56;39.63;;;20.90;;
49296;SDS011;35163;48.878;18.040;2024-02-15T06:36:52;37.00;;;18.48;;
49296;SDS011;35163;48.878;18.040;2024-02-15T06:39:38;47.15;;;20.63;;
49296;SDS011;35163;48.878;18.040;2024-02-15T06:42:10;37.58;;;19.95;;
49296;SDS011;35163;48.878;18.040;2024-02-15T06:44:40;42.33;;;22.25;;
49296;SDS011;35163;48.878;18.040;2024-02-15T06:47:07;42.03;;;22.85;;
49296;SDS011;35163;48.878;18.040;2024-02-15T06:49:36;37.95;;;21.08;;
49296;SDS011;35163;48.878;18.040;2024-02-15T06:52:10;41.08;;;21.70;;
49296;SDS011;35163;48.878;18.040;2024-02-15T06:54:41;42.35;;;22.42;;
49296;SDS011;35163;48.878;18.040;2024-02-15T06:57:09;41.97;;;21.80;;
49296;SDS011;35163;48.878;18.040;2024-02-15T06:59:35;43.78;;;21.38;;
49296;SDS011;35163;48.878;18.040;2024-02-15T07:02:04;41.60;;;21.98;;
49296;SDS011;35163;48.878;18.040;2024-02-15T07:04:34;38.85;;;21.13;;
49296;SDS011;35163;48.878;18.040;2024-02-15T07:07:01;41.42;;;22.02;;
49296;SDS011;35163;48.878;18.040;2024-02-15T07:09:29;42.22;;;20.73;;
49296;SDS011;35163;48.878;18.040;2024-02-15T07:11:56;34.97;;;19.02;;
49296;SDS011;35163;48.878;18.040;2024-02-15T07:14:24;40.65;;;20.50;;
49296;SDS011;35163;48.878;18.040;2024-02-15T07:16:54;41.97;;;20.67;;
49296;SDS011;35163;48.878;18.040;2024-02-15T07:19:24;38.05;;;19.80;;
49296;SDS011;35163;48.878;18.040;2024-02-15T07:21:51;39.58;;;20.48;;
49296;SDS011;35163;48.878;18.040;2024-02-15T07:24:18;34.47;;;19.75;;
49296;SDS011;35163;48.878;18.040;2024-02-15T07:26:45;36.92;;;19.13;;
49296;SDS011;35163;48.878;18.040;2024-02-15T07:29:12;36.63;;;19.08;;
49296;SDS011;35163;48.878;18.040;2024-02-15T07:31:41;39.97;;;19.55;;
49296;SDS011;35163;48.878;18.040;2024-02-15T07:34:08;32.92;;;17.75;;
49296;SDS011;35163;48.878;18.040;2024-02-15T07:36:35;31.30;;;18.33;;
49296;SDS011;35163;48.878;18.040;2024-02-15T07:39:02;31.35;;;17.67;;
49296;SDS011;35163;48.878;18.040;2024-02-15T07:41:30;34.20;;;17.52;;
49296;SDS011;35163;48.878;18.040;2024-02-15T07:44:00;28.75;;;16.63;;
49296;SDS011;35163;48.878;18.040;2024-02-15T07:46:27;29.95;;;17.17;;
49296;SDS011;35163;48.878;18.040;2024-02-15T07:48:54;33.22;;;17.13;;
49296;SDS011;35163;48.878;18.040;2024-02-15T07:51:21;34.10;;;18.15;;
49296;SDS011;35163;48.878;18.040;2024-02-15T07:53:49;38.03;;;19.95;;
49296;SDS011;35163;48.878;18.040;2024-02-15T07:56:16;35.58;;;19.40;;
49296;SDS011;35163;48.878;18.040;2024-02-15T07:58:44;39.17;;;20.05;;
49296;SDS011;35163;48.878;18.040;2024-02-15T08:03:51;39.90;;;21.20;;
49296;SDS011;35163;48.878;18.040;2024-02-15T08:06:21;41.60;;;22.17;;
49296;SDS011;35163;48.878;18.040;2024-02-15T08:08:50;41.83;;;23.00;;
49296;SDS011;35163;48.878;18.040;2024-02-15T08:11:19;46.72;;;22.40;;
49296;SDS011;35163;48.878;18.040;2024-02-15T08:13:50;39.38;;;21.42;;
49296;SDS011;35163;48.878;18.040;2024-02-15T08:18:53;42.55;;;21.83;;
49296;SDS011;35163;48.878;18.040;2024-02-15T08:21:27;41.33;;;22.20;;
49296;SDS011;35163;48.878;18.040;2024-02-15T08:23:56;39.13;;;22.00;;
49296;SDS011;35163;48.878;18.040;2024-02-15T08:26:23;46.47;;;22.13;;
49296;SDS011;35163;48.878;18.040;2024-02-15T08:28:49;39.63;;;21.80;;
49296;SDS011;35163;48.878;18.040;2024-02-15T08:31:17;41.97;;;21.65;;
49296;SDS011;35163;48.878;18.040;2024-02-15T08:33:45;46.75;;;22.73;;
49296;SDS011;35163;48.878;18.040;2024-02-15T08:36:12;44.17;;;23.05;;
49296;SDS011;35163;48.878;18.040;2024-02-15T08:38:42;39.13;;;20.42;;
49296;SDS011;35163;48.878;18.040;2024-02-15T08:41:09;44.08;;;22.92;;
49296;SDS011;35163;48.878;18.040;2024-02-15T08:43:38;34.72;;;20.27;;
49296;SDS011;35163;48.878;18.040;2024-02-15T08:46:08;34.38;;;21.17;;
49296;SDS011;35163;48.878;18.040;2024-02-15T08:48:34;35.17;;;19.52;;
49296;SDS011;35163;48.878;18.040;2024-02-15T08:51:02;43.38;;;19.35;;
49296;SDS011;35163;48.878;18.040;2024-02-15T08:53:32;39.78;;;17.73;;
49296;SDS011;35163;48.878;18.040;2024-02-15T08:55:59;32.30;;;17.88;;
49296;SDS011;35163;48.878;18.040;2024-02-15T08:58:26;34.65;;;17.73;;
49296;SDS011;35163;48.878;18.040;2024-02-15T09:00:53;35.67;;;18.83;;
49296;SDS011;35163;48.878;18.040;2024-02-15T09:03:20;32.05;;;19.23;;
49296;SDS011;35163;48.878;18.040;2024-02-15T09:05:47;34.10;;;19.15;;
49296;SDS011;35163;48.878;18.040;2024-02-15T09:08:14;31.63;;;17.52;;
49296;SDS011;35163;48.878;18.040;2024-02-15T09:10:41;35.72;;;19.52;;
49296;SDS011;35163;48.878;18.040;2024-02-15T09:13:09;33.30;;;19.40;;
49296;SDS011;35163;48.878;18.040;2024-02-15T09:15:35;33.80;;;20.30;;
49296;SDS011;35163;48.878;18.040;2024-02-15T09:18:02;60.42;;;20.92;;
49296;SDS011;35163;48.878;18.040;2024-02-15T09:20:28;33.42;;;18.77;;
49296;SDS011;35163;48.878;18.040;2024-02-15T09:22:56;32.70;;;18.88;;
49296;SDS011;35163;48.878;18.040;2024-02-15T09:25:23;38.88;;;19.52;;
49296;SDS011;35163;48.878;18.040;2024-02-15T09:27:51;34.90;;;19.33;;
49296;SDS011;35163;48.878;18.040;2024-02-15T09:30:20;33.35;;;18.95;;
49296;SDS011;35163;48.878;18.040;2024-02-15T09:32:46;30.60;;;18.67;;
49296;SDS011;35163;48.878;18.040;2024-02-15T09:35:13;34.65;;;18.25;;
49296;SDS011;35163;48.878;18.040;2024-02-15T09:37:44;37.95;;;20.40;;
49296;SDS011;35163;48.878;18.040;2024-02-15T09:40:12;32.50;;;17.40;;
49296;SDS011;35163;48.878;18.040;2024-02-15T09:42:41;30.38;;;17.33;;
49296;SDS011;35163;48.878;18.040;2024-02-15T09:45:08;34.65;;;17.50;;
49296;SDS011;35163;48.878;18.040;2024-02-15T09:47:39;27.77;;;16.42;;
49296;SDS011;35163;48.878;18.040;2024-02-15T09:50:09;36.92;;;16.50;;
49296;SDS011;35163;48.878;18.040;2024-02-15T09:52:43;30.83;;;16.10;;
49296;SDS011;35163;48.878;18.040;2024-02-15T09:55:11;28.90;;;16.75;;
49296;SDS011;35163;48.878;18.040;2024-02-15T09:57:42;32.63;;;17.33;;
49296;SDS011;35163;48.878;18.040;2024-02-15T10:00:11;34.83;;;16.75;;
49296;SDS011;35163;48.878;18.040;2024-02-15T10:02:43;32.25;;;17.25;;
49296;SDS011;35163;48.878;18.040;2024-02-15T10:05:11;33.78;;;17.38;;
49296;SDS011;35163;48.878;18.040;2024-02-15T10:07:39;29.85;;;18.45;;
49296;SDS011;35163;48.878;18.040;2024-02-15T10:10:16;30.08;;;17.30;;
49296;SDS011;35163;48.878;18.040;2024-02-15T10:12:47;36.97;;;16.83;;
49296;SDS011;35163;48.878;18.040;2024-02-15T10:15:36;29.67;;;16.75;;
49296;SDS011;35163;48.878;18.040;2024-02-15T10:18:04;24.75;;;15.52;;
49296;SDS011;35163;48.878;18.040;2024-02-15T10:20:37;26.38;;;14.68;;
49296;SDS011;35163;48.878;18.040;2024-02-15T10:23:09;26.75;;;14.25;;
49296;SDS011;35163;48.878;18.040;2024-02-15T10:25:38;28.85;;;15.50;;
49296;SDS011;35163;48.878;18.040;2024-02-15T10:28:06;32.88;;;15.93;;
49296;SDS011;35163;48.878;18.040;2024-02-15T10:30:37;32.15;;;16.42;;
49296;SDS011;35163;48.878;18.040;2024-02-15T10:33:05;32.50;;;15.82;;
49296;SDS011;35163;48.878;18.040;2024-02-15T10:35:35;32.25;;;15.52;;
49296;SDS011;35163;48.878;18.040;2024-02-15T10:38:09;26.90;;;15.02;;
49296;SDS011;35163;48.878;18.040;2024-02-15T10:40:39;39.30;;;18.52;;
49296;SDS011;35163;48.878;18.040;2024-02-15T10:43:10;51.97;;;20.85;;
49296;SDS011;35163;48.878;18.040;2024-02-15T10:45:40;59.95;;;20.10;;
49296;SDS011;35163;48.878;18.040;2024-02-15T10:48:07;53.30;;;21.55;;
49296;SDS011;35163;48.878;18.040;2024-02-15T10:50:38;39.55;;;19.38;;
49296;SDS011;35163;48.878;18.040;2024-02-15T10:53:27;47.22;;;20.73;;
49296;SDS011;35163;48.878;18.040;2024-02-15T10:56:04;37.40;;;19.65;;
49296;SDS011;35163;48.878;18.040;2024-02-15T10:58:55;40.40;;;17.77;;
49296;SDS011;35163;48.878;18.040;2024-02-15T11:04:03;27.65;;;14.38;;
49296;SDS011;35163;48.878;18.040;2024-02-15T11:06:35;43.08;;;23.95;;
49296;SDS011;35163;48.878;18.040;2024-02-15T11:09:08;30.08;;;17.23;;
49296;SDS011;35163;48.878;18.040;2024-02-15T11:11:37;27.30;;;13.52;;
49296;SDS011;35163;48.878;18.040;2024-02-15T11:16:55;25.85;;;13.50;;
49296;SDS011;35163;48.878;18.040;2024-02-15T11:22:09;22.52;;;12.93;;
49296;SDS011;35163;48.878;18.040;2024-02-15T11:24:45;25.40;;;12.98;;
49296;SDS011;35163;48.878;18.040;2024-02-15T11:29:59;27.88;;;13.15;;
49296;SDS011;35163;48.878;18.040;2024-02-15T11:32:49;25.95;;;13.68;;
49296;SDS011;35163;48.878;18.040;2024-02-15T11:40:26;25.42;;;13.45;;
49296;SDS011;35163;48.878;18.040;2024-02-15T11:43:08;23.23;;;13.32;;
49296;SDS011;35163;48.878;18.040;2024-02-15T11:45:36;25.52;;;13.63;;
49296;SDS011;35163;48.878;18.040;2024-02-15T11:48:11;25.20;;;13.73;;
49296;SDS011;35163;48.878;18.040;2024-02-15T11:50:40;24.02;;;12.32;;
49296;SDS011;35163;48.878;18.040;2024-02-15T11:53:08;32.47;;;14.05;;
49296;SDS011;35163;48.878;18.040;2024-02-15T11:55:39;22.73;;;13.20;;
49296;SDS011;35163;48.878;18.040;2024-02-15T11:58:08;29.67;;;14.00;;
49296;SDS011;35163;48.878;18.040;2024-02-15T12:00:37;23.58;;;13.25;;
49296;SDS011;35163;48.878;18.040;2024-02-15T12:03:22;25.80;;;12.45;;
49296;SDS011;35163;48.878;18.040;2024-02-15T12:06:25;29.70;;;14.27;;
49296;SDS011;35163;48.878;18.040;2024-02-15T12:09:17;26.88;;;14.65;;
49296;SDS011;35163;48.878;18.040;2024-02-15T12:12:04;32.35;;;13.43;;
49296;SDS011;35163;48.878;18.040;2024-02-15T12:14:57;25.60;;;13.85;;
49296;SDS011;35163;48.878;18.040;2024-02-15T12:17:43;20.20;;;12.63;;
49296;SDS011;35163;48.878;18.040;2024-02-15T12:20:29;28.90;;;14.13;;
49296;SDS011;35163;48.878;18.040;2024-02-15T12:22:58;24.20;;;14.05;;
49296;SDS011;35163;48.878;18.040;2024-02-15T12:25:26;24.85;;;14.05;;
49296;SDS011;35163;48.878;18.040;2024-02-15T12:27:54;27.67;;;13.65;;
49296;SDS011;35163;48.878;18.040;2024-02-15T12:30:21;39.35;;;21.75;;
49296;SDS011;35163;48.878;18.040;2024-02-15T12:32:49;33.53;;;17.85;;
49296;SDS011;35163;48.878;18.040;2024-02-15T12:35:18;24.77;;;14.05;;
49296;SDS011;35163;48.878;18.040;2024-02-15T12:37:46;22.20;;;13.10;;
49296;SDS011;35163;48.878;18.040;2024-02-15T12:40:16;27.27;;;14.73;;
49296;SDS011;35163;48.878;18.040;2024-02-15T12:42:44;27.15;;;13.13;;
49296;SDS011;35163;48.878;18.040;2024-02-15T12:45:19;24.13;;;13.88;;
49296;SDS011;35163;48.878;18.040;2024-02-15T12:47:51;29.95;;;13.35;;
49296;SDS011;35163;48.878;18.040;2024-02-15T12:50:19;25.10;;;14.07;;
49296;SDS011;35163;48.878;18.040;2024-02-15T12:52:50;26.15;;;14.73;;
49296;SDS011;35163;48.878;18.040;2024-02-15T12:57:51;24.98;;;14.63;;
49296;SDS011;35163;48.878;18.040;2024-02-15T13:00:19;24.02;;;13.77;;
49296;SDS011;35163;48.878;18.040;2024-02-15T13:02:48;25.50;;;14.00;;
49296;SDS011;35163;48.878;18.040;2024-02-15T13:05:17;28.77;;;13.82;;
49296;SDS011;35163;48.878;18.040;2024-02-15T13:07:51;27.33;;;13.70;;
49296;SDS011;35163;48.878;18.040;2024-02-15T13:10:18;31.90;;;14.30;;
49296;SDS011;35163;48.878;18.040;2024-02-15T13:12:45;25.67;;;14.00;;
49296;SDS011;35163;48.878;18.040;2024-02-15T13:15:13;26.23;;;14.77;;
49296;SDS011;35163;48.878;18.040;2024-02-15T13:17:44;28.25;;;14.30;;
49296;SDS011;35163;48.878;18.040;2024-02-15T13:20:12;24.73;;;12.70;;
49296;SDS011;35163;48.878;18.040;2024-02-15T13:22:42;24.98;;;14.02;;
49296;SDS011;35163;48.878;18.040;2024-02-15T13:25:10;28.05;;;13.85;;
49296;SDS011;35163;48.878;18.040;2024-02-15T13:27:37;21.80;;;12.02;;
49296;SDS011;35163;48.878;18.040;2024-02-15T13:30:05;24.20;;;12.93;;
49296;SDS011;35163;48.878;18.040;2024-02-15T13:32:35;25.05;;;12.95;;
49296;SDS011;35163;48.878;18.040;2024-02-15T13:35:04;25.70;;;13.27;;
49296;SDS011;35163;48.878;18.040;2024-02-15T13:37:43;28.15;;;12.90;;
49296;SDS011;35163;48.878;18.040;2024-02-15T13:40:16;27.83;;;13.77;;
49296;SDS011;35163;48.878;18.040;2024-02-15T13:42:43;23.65;;;13.25;;
49296;SDS011;35163;48.878;18.040;2024-02-15T13:45:19;23.70;;;13.80;;
49296;SDS011;35163;48.878;18.040;2024-02-15T13:47:50;23.63;;;13.18;;
49296;SDS011;35163;48.878;18.040;2024-02-15T13:50:21;25.23;;;12.73;;
49296;SDS011;35163;48.878;18.040;2024-02-15T13:52:48;24.73;;;13.23;;
49296;SDS011;35163;48.878;18.040;2024-02-15T13:55:16;20.75;;;12.32;;
49296;SDS011;35163;48.878;18.040;2024-02-15T13:57:44;22.98;;;12.52;;
49296;SDS011;35163;48.878;18.040;2024-02-15T14:00:15;23.00;;;11.98;;
49296;SDS011;35163;48.878;18.040;2024-02-15T14:02:51;25.23;;;13.27;;
49296;SDS011;35163;48.878;18.040;2024-02-15T14:05:26;21.93;;;11.87;;
49296;SDS011;35163;48.878;18.040;2024-02-15T14:08:04;24.15;;;12.55;;
49296;SDS011;35163;48.878;18.040;2024-02-15T14:10:32;20.83;;;12.10;;
49296;SDS011;35163;48.878;18.040;2024-02-15T14:13:03;20.85;;;11.65;;
49296;SDS011;35163;48.878;18.040;2024-02-15T14:15:39;21.65;;;11.25;;
49296;SDS011;35163;48.878;18.040;2024-02-15T14:18:08;24.00;;;11.88;;
49296;SDS011;35163;48.878;18.040;2024-02-15T14:20:41;23.10;;;11.18;;
49296;SDS011;35163;48.878;18.040;2024-02-15T14:23:13;20.05;;;11.02;;
49296;SDS011;35163;48.878;18.040;2024-02-15T14:25:41;21.15;;;12.10;;
49296;SDS011;35163;48.878;18.040;2024-02-15T14:28:08;23.00;;;11.60;;
49296;SDS011;35163;48.878;18.040;2024-02-15T14:30:35;23.05;;;11.88;;
49296;SDS011;35163;48.878;18.040;2024-02-15T14:33:21;24.17;;;11.25;;
49296;SDS011;35163;48.878;18.040;2024-02-15T14:35:49;21.25;;;11.32;;
49296;SDS011;35163;48.878;18.040;2024-02-15T14:38:20;23.90;;;13.35;;
49296;SDS011;35163;48.878;18.040;2024-02-15T14:40:50;23.88;;;12.20;;
49296;SDS011;35163;48.878;18.040;2024-02-15T14:43:22;20.08;;;11.70;;
49296;SDS011;35163;48.878;18.040;2024-02-15T14:45:50;22.27;;;12.27;;
49296;SDS011;35163;48.878;18.040;2024-02-15T14:48:18;24.02;;;12.95;;
49296;SDS011;35163;48.878;18.040;2024-02-15T14:50:46;21.92;;;11.30;;